createdAt,value
2019-03-30T00:00:03.020Z,95155.00
2019-03-30T00:02:31.690Z,95148.86
2019-03-30T00:05:00.372Z,95143.98
2019-03-30T00:07:29.135Z,95141.64
2019-03-30T00:09:57.817Z,95141.48
2019-03-30T00:12:26.498Z,95139.22
2019-03-30T00:14:55.185Z,95132.76
2019-03-30T00:17:23.845Z,95140.45
2019-03-30T00:19:52.528Z,95138.97
2019-03-30T00:22:21.215Z,95138.48
2019-03-30T00:24:49.898Z,95136.59
2019-03-30T00:27:18.562Z,95140.48
2019-03-30T00:29:47.259Z,95138.52
2019-03-30T00:32:15.918Z,95139.29
2019-03-30T00:34:44.619Z,95137.03
2019-03-30T00:37:13.300Z,95127.28
2019-03-30T00:39:41.988Z,95121.73
2019-03-30T00:42:10.670Z,95117.52
2019-03-30T00:44:39.346Z,95118.40
2019-03-30T00:47:08.028Z,95121.47
2019-03-30T00:49:48.558Z,95124.58
2019-03-30T00:52:07.140Z,95127.53
2019-03-30T00:54:35.819Z,95119.27
2019-03-30T00:57:04.503Z,95120.58
2019-03-30T00:59:33.189Z,95121.92
2019-03-30T01:02:01.879Z,95122.34
2019-03-30T01:04:30.572Z,95124.46
2019-03-30T01:06:59.246Z,95118.73
2019-03-30T01:09:27.936Z,95120.33
2019-03-30T01:11:56.616Z,95115.69
2019-03-30T01:14:25.304Z,95126.03
2019-03-30T01:16:53.975Z,95128.91
2019-03-30T01:19:22.652Z,95117.38
2019-03-30T01:21:51.331Z,95108.83
2019-03-30T01:24:20.020Z,95117.55
2019-03-30T01:26:48.744Z,95119.50
2019-03-30T01:29:17.416Z,95123.47
2019-03-30T01:31:46.098Z,95127.53
2019-03-30T01:34:14.785Z,95124.05
2019-03-30T01:36:43.470Z,95124.38
2019-03-30T01:39:12.198Z,95131.46
2019-03-30T01:41:40.891Z,95128.63
2019-03-30T01:44:09.559Z,95128.76
2019-03-30T01:46:38.225Z,95126.19
2019-03-30T01:49:06.901Z,95133.63
2019-03-30T01:51:35.576Z,95132.47
2019-03-30T01:54:04.356Z,95134.56
2019-03-30T01:56:33.039Z,95135.42
2019-03-30T01:59:01.727Z,95128.30
2019-03-30T02:01:30.404Z,95136.00
2019-03-30T02:03:59.110Z,95127.88
2019-03-30T02:06:27.758Z,95125.09
2019-03-30T02:08:56.427Z,95132.85
2019-03-30T02:11:25.117Z,95129.47
2019-03-30T02:13:53.802Z,95119.12
2019-03-30T02:16:22.490Z,95120.70
2019-03-30T02:18:51.149Z,95120.88
2019-03-30T02:21:19.834Z,95121.14
2019-03-30T02:23:48.514Z,95117.88
2019-03-30T02:26:17.206Z,95117.79
2019-03-30T02:28:45.887Z,95125.27
2019-03-30T02:31:14.577Z,95114.02
2019-03-30T02:33:43.281Z,95119.20
2019-03-30T02:36:11.946Z,95124.88
2019-03-30T02:38:40.631Z,95117.25
2019-03-30T02:41:09.323Z,95124.34
2019-03-30T02:43:38.016Z,95124.28
2019-03-30T02:46:06.690Z,95119.72
2019-03-30T02:48:35.410Z,95123.77
2019-03-30T02:51:04.169Z,95119.56
2019-03-30T02:53:32.829Z,95123.47
2019-03-30T02:56:01.519Z,95112.09
2019-03-30T02:58:30.208Z,95089.52
2019-03-30T03:00:58.889Z,95119.66
2019-03-30T03:03:27.582Z,95120.36
2019-03-30T03:05:56.269Z,95115.75
2019-03-30T03:08:24.939Z,95120.23
2019-03-30T03:10:53.636Z,95120.23
2019-03-30T03:13:22.316Z,95128.08
2019-03-30T03:15:51.004Z,95119.70
2019-03-30T03:18:19.688Z,95119.62
2019-03-30T03:21:06.087Z,95115.41
2019-03-30T03:23:18.821Z,95116.48
2019-03-30T03:25:47.516Z,95118.14
2019-03-30T03:28:16.159Z,95115.77
2019-03-30T03:30:44.858Z,95114.44
2019-03-30T03:33:13.515Z,95122.54
2019-03-30T03:35:42.201Z,95122.37
2019-03-30T03:38:10.888Z,95118.55
2019-03-30T03:40:39.573Z,95123.95
2019-03-30T03:43:08.246Z,95122.20
2019-03-30T03:45:36.919Z,95125.23
2019-03-30T03:48:06.398Z,95128.30
2019-03-30T03:50:45.375Z,95126.29
2019-03-30T03:53:15.738Z,95132.70
2019-03-30T03:55:45.152Z,95134.31
2019-03-30T03:58:15.659Z,95135.30
2019-03-30T04:00:45.319Z,95128.98
2019-03-30T04:03:17.304Z,95137.87
2019-03-30T04:05:47.087Z,95135.11
2019-03-30T04:08:16.284Z,95136.28
2019-03-30T04:10:47.152Z,95137.10
2019-03-30T04:13:15.958Z,95143.17
2019-03-30T04:15:44.590Z,95140.47
2019-03-30T04:18:13.375Z,95146.86
2019-03-30T04:20:42.050Z,95149.08
2019-03-30T04:23:10.755Z,95153.71
2019-03-30T04:25:39.433Z,95160.30
2019-03-30T04:28:08.123Z,95162.81
2019-03-30T04:30:36.804Z,95164.13
2019-03-30T04:33:06.832Z,95171.77
2019-03-30T04:35:37.644Z,95176.06
2019-03-30T04:38:06.355Z,95168.81
2019-03-30T04:40:35.015Z,95168.86
2019-03-30T04:43:03.684Z,95166.17
2019-03-30T04:45:32.368Z,95166.61
2019-03-30T04:48:01.092Z,95164.56
2019-03-30T04:50:29.812Z,95164.26
2019-03-30T04:52:58.474Z,95156.84
2019-03-30T04:55:27.165Z,95164.00
2019-03-30T04:57:57.757Z,95162.70
2019-03-30T05:00:26.282Z,95167.81
2019-03-30T05:02:54.957Z,95170.70
2019-03-30T05:05:23.667Z,95169.14
2019-03-30T05:07:52.346Z,95166.38
2019-03-30T05:10:21.021Z,95176.91
2019-03-30T05:12:49.709Z,95175.77
2019-03-30T05:15:18.388Z,95174.73
2019-03-30T05:17:48.157Z,95177.13
2019-03-30T05:20:16.915Z,95180.66
2019-03-30T05:22:45.582Z,95174.34
2019-03-30T05:25:14.271Z,95172.02
2019-03-30T05:27:42.944Z,95174.81
2019-03-30T05:30:12.128Z,95176.42
2019-03-30T05:32:41.774Z,95179.61
2019-03-30T05:35:11.121Z,95179.61
2019-03-30T05:37:39.782Z,95172.02
2019-03-30T05:40:08.957Z,95171.19
2019-03-30T05:42:37.625Z,95171.05
2019-03-30T05:45:07.866Z,95173.44
2019-03-30T05:47:36.573Z,95168.98
2019-03-30T05:50:06.701Z,95167.08
2019-03-30T05:52:35.733Z,95162.92
2019-03-30T05:55:05.431Z,95161.45
2019-03-30T05:57:34.126Z,95159.00
2019-03-30T06:00:02.825Z,95166.16
2019-03-30T06:02:31.536Z,95163.42
2019-03-30T06:05:03.066Z,95160.17
2019-03-30T06:07:30.586Z,95156.39
2019-03-30T06:09:59.248Z,95150.22
2019-03-30T06:12:27.936Z,95153.59
2019-03-30T06:14:56.611Z,95150.39
2019-03-30T06:17:25.291Z,95146.24
2019-03-30T06:19:53.962Z,95139.12
2019-03-30T06:22:22.657Z,95142.92
2019-03-30T06:24:51.334Z,95137.10
2019-03-30T06:27:20.029Z,95138.45
2019-03-30T06:30:17.210Z,95137.72
2019-03-30T06:32:46.407Z,95140.09
2019-03-30T06:35:15.174Z,95137.89
2019-03-30T06:37:43.869Z,95139.00
2019-03-30T06:40:13.430Z,95140.06
2019-03-30T06:42:42.111Z,95140.48
2019-03-30T06:45:11.072Z,95145.34
2019-03-30T06:47:39.794Z,95145.81
2019-03-30T06:50:09.475Z,95145.01
2019-03-30T06:52:41.254Z,95024.08
2019-03-30T06:55:09.364Z,95150.79
2019-03-30T06:57:38.103Z,95145.17
2019-03-30T07:00:09.093Z,95149.73
2019-03-30T07:02:38.703Z,95153.66
2019-03-30T07:05:09.403Z,95154.82
2019-03-30T07:07:39.178Z,95155.53
2019-03-30T07:10:08.665Z,95150.20
2019-03-30T07:12:40.433Z,95154.11
2019-03-30T07:15:11.015Z,95155.45
2019-03-30T07:17:45.371Z,95157.91
2019-03-30T07:20:19.580Z,95153.42
2019-03-30T07:22:51.180Z,95155.02
2019-03-30T07:25:18.743Z,95162.83
2019-03-30T07:27:47.427Z,95160.81
2019-03-30T07:30:16.117Z,95164.15
2019-03-30T07:32:44.864Z,95171.08
2019-03-30T07:35:14.077Z,95165.83
2019-03-30T07:37:42.808Z,95163.25
2019-03-30T07:40:11.499Z,95157.73
2019-03-30T07:42:40.172Z,95147.59
2019-03-30T07:45:08.957Z,95043.59
2019-03-30T07:47:37.637Z,95158.63
2019-03-30T07:50:08.379Z,95153.57
2019-03-30T07:52:37.102Z,95154.80
2019-03-30T07:55:07.275Z,95153.13
2019-03-30T07:57:35.966Z,95154.28
2019-03-30T08:00:09.834Z,95157.91
2019-03-30T08:02:38.522Z,95164.20
2019-03-30T08:05:08.105Z,95165.94
2019-03-30T08:07:36.789Z,95155.77
2019-03-30T08:10:07.738Z,95153.61
2019-03-30T08:12:36.415Z,95153.07
2019-03-30T08:15:09.795Z,95156.38
2019-03-30T08:17:38.459Z,95153.20
2019-03-30T08:20:07.651Z,95153.98
2019-03-30T08:22:36.525Z,95151.78
2019-03-30T08:25:06.612Z,95157.71
2019-03-30T08:27:35.299Z,95153.77
2019-03-30T08:30:04.905Z,95154.63
2019-03-30T08:32:33.607Z,95139.20
2019-03-30T08:35:02.272Z,95149.59
2019-03-30T08:37:30.970Z,95142.88
2019-03-30T08:39:59.645Z,95144.73
2019-03-30T08:42:28.330Z,95140.83
2019-03-30T08:44:57.005Z,95137.52
2019-03-30T08:47:25.684Z,95136.50
2019-03-30T08:49:54.380Z,95145.06
2019-03-30T08:52:23.054Z,95130.04
2019-03-30T08:54:51.856Z,95129.77
2019-03-30T08:57:20.715Z,95130.44
2019-03-30T08:59:49.414Z,95130.19
2019-03-30T09:02:18.108Z,95117.00
2019-03-30T09:04:46.909Z,95118.97
2019-03-30T09:07:15.597Z,95121.47
2019-03-30T09:09:44.282Z,95118.95
2019-03-30T09:12:12.978Z,95115.44
2019-03-30T09:14:41.660Z,95108.94
2019-03-30T09:17:10.374Z,95109.72
2019-03-30T09:19:39.055Z,95111.98
2019-03-30T09:22:07.741Z,95106.20
2019-03-30T09:24:36.443Z,95107.84
2019-03-30T09:27:05.146Z,95106.47
2019-03-30T09:29:33.850Z,95096.72
2019-03-30T09:32:13.776Z,95106.53
2019-03-30T09:34:33.034Z,95103.39
2019-03-30T09:37:01.771Z,95097.36
2019-03-30T09:39:30.456Z,95097.34
2019-03-30T09:41:59.134Z,95084.78
2019-03-30T09:44:27.824Z,95092.84
2019-03-30T09:46:56.547Z,95081.86
2019-03-30T09:49:25.241Z,95082.98
2019-03-30T09:51:53.915Z,95072.55
2019-03-30T09:54:23.911Z,95080.67
2019-03-30T09:56:52.774Z,95075.67
2019-03-30T09:59:21.450Z,95079.00
2019-03-30T10:01:50.140Z,95069.84
2019-03-30T10:04:18.812Z,95062.78
2019-03-30T10:06:47.480Z,95059.00
2019-03-30T10:09:16.161Z,95046.43
2019-03-30T10:11:44.847Z,95054.08
2019-03-30T10:14:13.514Z,95056.72
2019-03-30T10:16:42.191Z,95052.59
2019-03-30T10:19:10.947Z,95042.45
2019-03-30T10:21:39.629Z,95042.11
2019-03-30T10:24:08.355Z,95035.31
2019-03-30T10:26:37.030Z,95041.44
2019-03-30T10:29:05.714Z,95032.23
2019-03-30T10:31:34.383Z,95035.86
2019-03-30T10:34:03.063Z,95028.07
2019-03-30T10:36:31.745Z,95023.85
2019-03-30T10:39:00.414Z,95023.57
2019-03-30T10:41:29.099Z,95010.30
2019-03-30T10:43:57.798Z,95012.20
2019-03-30T10:46:26.607Z,95017.33
2019-03-30T10:48:55.375Z,95007.78
2019-03-30T10:51:24.069Z,95000.20
2019-03-30T10:53:52.732Z,94997.75
2019-03-30T10:56:21.415Z,94988.78
2019-03-30T10:58:50.109Z,94991.32
2019-03-30T11:01:18.792Z,94995.15
2019-03-30T11:03:47.476Z,94982.36
2019-03-30T11:06:16.165Z,94977.81
2019-03-30T11:08:44.865Z,94978.73
2019-03-30T11:11:14.463Z,94969.72
2019-03-30T11:13:43.147Z,94968.38
2019-03-30T11:16:11.818Z,94961.89
2019-03-30T11:18:40.526Z,94959.53
2019-03-30T11:21:09.269Z,94956.12
2019-03-30T11:23:37.883Z,94955.33
2019-03-30T11:26:06.585Z,94943.46
2019-03-30T11:28:35.264Z,94944.00
2019-03-30T11:31:05.560Z,94934.34
2019-03-30T11:33:34.398Z,94940.96
2019-03-30T11:36:03.118Z,94942.16
2019-03-30T11:38:31.779Z,94938.79
2019-03-30T11:41:00.467Z,94938.38
2019-03-30T11:43:29.129Z,94924.69
2019-03-30T11:45:57.837Z,94921.80
2019-03-30T11:48:26.537Z,94920.07
2019-03-30T11:50:55.246Z,94919.96
2019-03-30T11:53:23.934Z,94918.63
2019-03-30T11:55:52.629Z,94919.67
2019-03-30T11:58:21.315Z,94916.16
2019-03-30T12:00:50.024Z,94917.28
2019-03-30T12:03:18.716Z,94906.88
2019-03-30T12:05:47.376Z,94915.64
2019-03-30T12:08:16.067Z,94901.09
2019-03-30T12:10:44.749Z,94905.16
2019-03-30T12:13:13.446Z,94897.92
2019-03-30T12:15:42.135Z,94899.61
2019-03-30T12:18:10.815Z,94900.24
2019-03-30T12:20:39.486Z,94898.19
2019-03-30T12:23:08.231Z,94893.52
2019-03-30T12:25:36.897Z,94886.66
2019-03-30T12:28:05.588Z,94889.69
2019-03-30T12:30:34.258Z,94878.72
2019-03-30T12:33:02.985Z,94879.64
2019-03-30T12:35:31.656Z,94878.28
2019-03-30T12:38:00.373Z,94876.27
2019-03-30T12:40:29.051Z,94866.23
2019-03-30T12:42:57.736Z,94864.84
2019-03-30T12:45:27.011Z,94824.16
2019-03-30T12:47:55.697Z,94858.08
2019-03-30T12:50:24.493Z,94857.55
2019-03-30T12:52:53.168Z,94854.35
2019-03-30T12:55:21.878Z,94850.13
2019-03-30T12:57:50.563Z,94849.81
2019-03-30T13:00:19.395Z,94843.98
2019-03-30T13:02:48.086Z,94846.32
2019-03-30T13:05:16.820Z,94840.69
2019-03-30T13:07:45.516Z,94833.10
2019-03-30T13:10:14.297Z,94842.69
2019-03-30T13:12:42.987Z,94840.70
2019-03-30T13:15:12.677Z,94839.97
2019-03-30T13:17:41.359Z,94841.14
2019-03-30T13:20:10.169Z,94837.64
2019-03-30T13:22:38.838Z,94835.92
2019-03-30T13:25:07.658Z,94833.17
2019-03-30T13:27:36.353Z,94839.78
2019-03-30T13:30:07.712Z,94840.98
2019-03-30T13:32:36.390Z,94838.52
2019-03-30T13:35:05.155Z,94835.45
2019-03-30T13:37:34.033Z,94835.39
2019-03-30T13:40:02.737Z,94830.19
2019-03-30T13:42:31.418Z,94824.62
2019-03-30T13:45:03.163Z,94821.89
2019-03-30T13:47:30.539Z,94819.00
2019-03-30T13:49:59.235Z,94809.86
2019-03-30T13:52:27.955Z,94809.72
2019-03-30T13:54:56.642Z,94820.65
2019-03-30T13:57:25.327Z,94813.05
2019-03-30T13:59:54.009Z,94815.40
2019-03-30T14:02:22.806Z,94816.72
2019-03-30T14:04:52.557Z,94813.75
2019-03-30T14:07:21.622Z,94804.66
2019-03-30T14:09:50.295Z,94809.81
2019-03-30T14:12:18.997Z,94809.44
2019-03-30T14:14:47.672Z,94816.13
2019-03-30T14:17:19.871Z,94810.19
2019-03-30T14:19:46.797Z,94805.80
2019-03-30T14:22:15.518Z,94800.97
2019-03-30T14:24:44.211Z,94812.17
2019-03-30T14:27:12.863Z,94804.75
2019-03-30T14:29:41.631Z,94797.98
2019-03-30T14:32:10.314Z,94792.80
2019-03-30T14:34:39.014Z,94799.25
2019-03-30T14:37:07.700Z,94797.08
2019-03-30T14:39:36.375Z,94798.20
2019-03-30T14:42:05.281Z,94795.55
2019-03-30T14:44:33.947Z,94800.50
2019-03-30T14:47:02.624Z,94798.55
2019-03-30T14:49:31.369Z,94803.85
2019-03-30T14:52:00.067Z,94810.03
2019-03-30T14:54:28.831Z,94806.79
2019-03-30T14:57:00.542Z,94805.71
2019-03-30T14:59:29.248Z,94803.21
2019-03-30T15:01:57.959Z,94805.25
2019-03-30T15:04:26.644Z,94804.31
2019-03-30T15:06:55.327Z,94809.47
2019-03-30T15:09:23.995Z,94809.19
2019-03-30T15:11:52.734Z,94805.41
2019-03-30T15:14:21.442Z,94803.18
2019-03-30T15:16:50.133Z,94796.63
2019-03-30T15:19:18.819Z,94812.59
2019-03-30T15:21:47.507Z,94811.83
2019-03-30T15:24:16.195Z,94817.75
2019-03-30T15:26:53.893Z,94812.34
2019-03-30T15:29:15.279Z,94811.83
2019-03-30T15:31:43.963Z,94805.52
2019-03-30T15:34:12.660Z,94809.52
2019-03-30T15:36:41.442Z,94807.52
2019-03-30T15:39:10.121Z,94809.85
2019-03-30T15:41:38.918Z,94801.62
2019-03-30T15:44:07.699Z,94808.64
2019-03-30T15:46:36.383Z,94810.15
2019-03-30T15:49:05.073Z,94815.89
2019-03-30T15:51:33.767Z,94816.14
2019-03-30T15:54:02.464Z,94815.65
2019-03-30T15:56:31.198Z,94810.30
2019-03-30T15:58:59.885Z,94823.47
2019-03-30T16:01:28.568Z,94818.73
2019-03-30T16:03:57.246Z,94825.88
2019-03-30T16:06:25.943Z,94816.92
2019-03-30T16:08:54.628Z,94820.66
2019-03-30T16:11:23.353Z,94821.15
2019-03-30T16:13:52.018Z,94827.34
2019-03-30T16:16:20.723Z,94825.34
2019-03-30T16:18:49.430Z,94824.71
2019-03-30T16:21:18.104Z,94825.03
2019-03-30T16:23:46.805Z,94823.75
2019-03-30T16:26:15.661Z,94825.06
2019-03-30T16:28:44.393Z,94831.75
2019-03-30T16:31:13.067Z,94825.49
2019-03-30T16:33:41.783Z,94824.34
2019-03-30T16:36:10.469Z,94832.86
2019-03-30T16:38:39.144Z,94832.78
2019-03-30T16:41:07.832Z,94833.85
2019-03-30T16:43:36.565Z,94834.43
2019-03-30T16:46:05.347Z,94832.84
2019-03-30T16:48:34.114Z,94834.84
2019-03-30T16:51:02.779Z,94842.16
2019-03-30T16:53:31.457Z,94842.59
2019-03-30T16:56:00.161Z,94838.55
2019-03-30T16:58:29.257Z,94838.86
2019-03-30T17:00:57.962Z,94841.13
2019-03-30T17:03:26.808Z,94840.08
2019-03-30T17:05:55.558Z,94834.66
2019-03-30T17:08:24.230Z,94832.66
2019-03-30T17:10:52.917Z,94836.01
2019-03-30T17:13:21.599Z,94842.47
2019-03-30T17:15:50.305Z,94838.24
2019-03-30T17:18:18.999Z,94838.95
2019-03-30T17:20:47.696Z,94838.20
2019-03-30T17:23:16.514Z,94839.66
2019-03-30T17:25:45.196Z,94841.95
2019-03-30T17:28:13.882Z,94838.78
2019-03-30T17:30:42.599Z,94839.45
2019-03-30T17:33:11.273Z,94840.47
2019-03-30T17:35:39.953Z,94849.23
2019-03-30T17:38:08.695Z,94848.84
2019-03-30T17:40:37.365Z,94854.34
2019-03-30T17:43:06.044Z,94854.63
2019-03-30T17:45:34.735Z,94860.47
2019-03-30T17:48:03.411Z,94861.97
2019-03-30T17:50:32.101Z,94862.25
2019-03-30T17:53:00.794Z,94859.98
2019-03-30T17:55:33.902Z,94859.88
2019-03-30T17:58:12.305Z,94858.77
2019-03-30T18:00:30.374Z,94856.25
2019-03-30T18:02:59.064Z,94865.03
2019-03-30T18:05:27.814Z,94860.94
2019-03-30T18:07:56.506Z,94857.84
2019-03-30T18:10:25.176Z,94863.61
2019-03-30T18:12:53.849Z,94855.11
2019-03-30T18:15:22.536Z,94861.70
2019-03-30T18:17:51.215Z,94855.20
2019-03-30T18:20:19.993Z,94852.59
2019-03-30T18:22:48.674Z,94858.25
2019-03-30T18:25:17.370Z,94853.74
2019-03-30T18:27:46.058Z,94866.03
2019-03-30T18:30:14.975Z,94859.66
2019-03-30T18:32:43.855Z,94824.58
2019-03-30T18:35:12.659Z,94850.77
2019-03-30T18:37:42.110Z,94855.73
2019-03-30T18:40:12.521Z,94856.50
2019-03-30T18:42:41.180Z,94858.26
2019-03-30T18:45:12.776Z,94863.63
2019-03-30T18:47:41.497Z,94858.05
2019-03-30T18:50:11.748Z,94861.02
2019-03-30T18:52:40.510Z,94864.47
2019-03-30T18:55:10.729Z,94864.77
2019-03-30T18:57:39.408Z,94870.20
2019-03-30T19:00:08.399Z,94871.30
2019-03-30T19:02:37.119Z,94873.97
2019-03-30T19:05:06.271Z,94880.64
2019-03-30T19:07:34.963Z,94874.90
2019-03-30T19:10:04.562Z,94874.38
2019-03-30T19:12:33.266Z,94872.92
2019-03-30T19:15:01.934Z,94873.58
2019-03-30T19:17:30.631Z,94873.45
2019-03-30T19:19:59.310Z,94874.01
2019-03-30T19:22:28.010Z,94882.17
2019-03-30T19:24:56.695Z,94884.77
2019-03-30T19:27:25.377Z,94881.09
2019-03-30T19:29:54.064Z,94880.32
2019-03-30T19:32:22.764Z,94884.13
2019-03-30T19:34:51.442Z,94883.20
2019-03-30T19:37:20.132Z,94882.08
2019-03-30T19:39:48.829Z,94878.03
2019-03-30T19:42:17.518Z,94885.34
2019-03-30T19:44:46.409Z,94889.89
2019-03-30T19:47:15.097Z,94888.79
2019-03-30T19:49:43.766Z,94898.47
2019-03-30T19:52:12.461Z,94897.02
2019-03-30T19:54:41.130Z,94891.09
2019-03-30T19:57:09.857Z,94898.59
2019-03-30T19:59:38.554Z,94895.41
2019-03-30T20:02:07.222Z,94899.22
2019-03-30T20:04:35.906Z,94898.12
2019-03-30T20:07:04.685Z,94898.44
2019-03-30T20:09:33.369Z,94903.17
2019-03-30T20:12:02.147Z,94897.76
2019-03-30T20:14:30.771Z,94894.78
2019-03-30T20:16:59.461Z,94892.13
2019-03-30T20:19:28.140Z,94894.14
2019-03-30T20:21:57.411Z,94890.97
2019-03-30T20:24:26.403Z,94892.01
2019-03-30T20:26:55.066Z,94803.63
2019-03-30T20:29:25.445Z,94894.68
2019-03-30T20:32:00.968Z,94880.28
2019-03-30T20:34:29.679Z,94881.34
2019-03-30T20:36:58.324Z,94880.17
2019-03-30T20:39:27.021Z,94869.34
2019-03-30T20:41:55.812Z,94877.27
2019-03-30T20:44:24.500Z,94878.13
2019-03-30T20:46:53.178Z,94877.96
2019-03-30T20:49:21.869Z,94880.05
2019-03-30T20:51:50.655Z,94880.92
2019-03-30T20:54:19.345Z,94889.48
2019-03-30T20:56:48.021Z,94884.01
2019-03-30T20:59:16.685Z,94880.55
2019-03-30T21:01:45.368Z,94880.88
2019-03-30T21:04:14.061Z,94878.53
2019-03-30T21:06:42.746Z,94874.06
2019-03-30T21:09:11.431Z,94869.16
2019-03-30T21:11:40.120Z,94868.15
2019-03-30T21:14:08.789Z,94844.33
2019-03-30T21:16:37.464Z,94871.36
2019-03-30T21:19:06.153Z,94865.23
2019-03-30T21:21:34.817Z,94862.99
2019-03-30T21:24:03.510Z,94865.70
2019-03-30T21:26:32.184Z,94866.00
2019-03-30T21:29:00.949Z,94863.75
2019-03-30T21:31:29.615Z,94858.67
2019-03-30T21:33:58.728Z,94852.52
2019-03-30T21:36:27.414Z,94855.09
2019-03-30T21:38:56.097Z,94860.49
2019-03-30T21:41:24.766Z,94860.66
2019-03-30T21:43:53.447Z,94856.16
2019-03-30T21:46:22.161Z,94858.70
2019-03-30T21:48:52.354Z,94861.70
2019-03-30T21:51:23.835Z,94853.01
2019-03-30T21:53:53.295Z,94847.91
2019-03-30T21:56:22.238Z,94853.89
2019-03-30T21:58:51.323Z,94856.73
2019-03-30T22:01:21.378Z,94853.75
2019-03-30T22:03:50.474Z,94846.10
2019-03-30T22:06:20.719Z,94845.35
2019-03-30T22:08:51.392Z,94848.78
2019-03-30T22:11:20.392Z,94840.84
2019-03-30T22:13:49.767Z,94841.89
2019-03-30T22:16:18.778Z,94838.89
2019-03-30T22:18:47.991Z,94835.44
2019-03-30T22:21:19.461Z,94835.90
2019-03-30T22:23:48.669Z,94827.78
2019-03-30T22:26:17.789Z,94831.09
2019-03-30T22:28:48.475Z,94835.28
2019-03-30T22:31:18.944Z,94830.64
2019-03-30T22:33:50.636Z,94827.80
2019-03-30T22:36:19.410Z,94832.14
2019-03-30T22:38:48.217Z,94833.78
2019-03-30T22:41:17.013Z,94831.69
2019-03-30T22:43:50.179Z,94833.35
2019-03-30T22:46:19.173Z,94827.18
2019-03-30T22:48:47.862Z,94828.70
2019-03-30T22:51:16.875Z,94830.05
2019-03-30T22:53:45.851Z,94827.80
2019-03-30T22:56:14.801Z,94829.59
2019-03-30T22:58:43.786Z,94826.30
2019-03-30T23:01:14.500Z,94830.66
2019-03-30T23:03:43.587Z,94829.91
2019-03-30T23:06:12.401Z,94827.64
2019-03-30T23:08:41.404Z,94821.05
2019-03-30T23:11:10.411Z,94820.88
2019-03-30T23:13:39.244Z,94812.91
2019-03-30T23:16:08.429Z,94816.98
2019-03-30T23:18:37.522Z,94809.94
2019-03-30T23:21:06.610Z,94810.98
2019-03-30T23:23:35.287Z,94810.83
2019-03-30T23:26:03.981Z,94809.62
2019-03-30T23:28:32.664Z,94807.52
2019-03-30T23:31:01.340Z,94800.02
2019-03-30T23:33:30.034Z,94801.98
2019-03-30T23:35:58.705Z,94798.06
2019-03-30T23:38:27.375Z,94794.42
2019-03-30T23:40:56.066Z,94787.81
2019-03-30T23:43:24.723Z,94790.06
2019-03-30T23:45:53.403Z,94785.27
2019-03-30T23:48:22.084Z,94788.16
2019-03-30T23:50:50.869Z,94783.22
2019-03-30T23:53:19.545Z,94762.76
2019-03-30T23:55:48.251Z,94782.42
2019-03-30T23:58:16.941Z,94777.63
